sensor_id;sensor_type;location;lat;lon;timestamp;P1;durP1;ratioP1;P2;durP2;ratioP2
22660;SDS011;11497;52.222;21.246;2023-04-06T00:02:02;20.00;;;9.57;;
22660;SDS011;11497;52.222;21.246;2023-04-06T00:04:30;19.67;;;9.50;;
22660;SDS011;11497;52.222;21.246;2023-04-06T00:06:58;21.80;;;9.77;;
22660;SDS011;11497;52.222;21.246;2023-04-06T00:09:26;20.33;;;9.15;;
22660;SDS011;11497;52.222;21.246;2023-04-06T00:11:54;16.27;;;8.45;;
22660;SDS011;11497;52.222;21.246;2023-04-06T00:14:21;17.65;;;8.32;;
22660;SDS011;11497;52.222;21.246;2023-04-06T00:16:49;16.08;;;9.13;;
22660;SDS011;11497;52.222;21.246;2023-04-06T00:19:17;18.83;;;8.75;;
22660;SDS011;11497;52.222;21.246;2023-04-06T00:21:45;16.25;;;8.52;;
22660;SDS011;11497;52.222;21.246;2023-04-06T00:24:13;17.13;;;9.10;;
22660;SDS011;11497;52.222;21.246;2023-04-06T00:26:41;14.73;;;8.18;;
22660;SDS011;11497;52.222;21.246;2023-04-06T00:29:09;18.35;;;9.40;;
22660;SDS011;11497;52.222;21.246;2023-04-06T00:31:37;18.88;;;8.30;;
22660;SDS011;11497;52.222;21.246;2023-04-06T00:34:05;20.60;;;8.63;;
22660;SDS011;11497;52.222;21.246;2023-04-06T00:36:33;18.60;;;8.90;;
22660;SDS011;11497;52.222;21.246;2023-04-06T00:39:02;19.65;;;9.25;;
22660;SDS011;11497;52.222;21.246;2023-04-06T00:41:30;19.17;;;9.35;;
22660;SDS011;11497;52.222;21.246;2023-04-06T00:43:57;20.73;;;9.75;;
22660;SDS011;11497;52.222;21.246;2023-04-06T00:46:25;16.27;;;8.57;;
22660;SDS011;11497;52.222;21.246;2023-04-06T00:48:53;17.98;;;9.60;;
22660;SDS011;11497;52.222;21.246;2023-04-06T00:51:22;18.80;;;8.90;;
22660;SDS011;11497;52.222;21.246;2023-04-06T00:53:50;24.55;;;9.88;;
22660;SDS011;11497;52.222;21.246;2023-04-06T00:56:18;18.95;;;9.57;;
22660;SDS011;11497;52.222;21.246;2023-04-06T00:58:50;20.98;;;10.00;;
22660;SDS011;11497;52.222;21.246;2023-04-06T01:01:18;21.95;;;9.77;;
22660;SDS011;11497;52.222;21.246;2023-04-06T01:03:48;20.67;;;9.57;;
22660;SDS011;11497;52.222;21.246;2023-04-06T01:06:18;17.77;;;8.82;;
22660;SDS011;11497;52.222;21.246;2023-04-06T01:08:55;17.05;;;8.95;;
22660;SDS011;11497;52.222;21.246;2023-04-06T01:11:25;18.77;;;8.90;;
22660;SDS011;11497;52.222;21.246;2023-04-06T01:13:53;16.35;;;9.25;;
22660;SDS011;11497;52.222;21.246;2023-04-06T01:16:36;18.92;;;8.68;;
22660;SDS011;11497;52.222;21.246;2023-04-06T01:19:10;19.02;;;8.65;;
22660;SDS011;11497;52.222;21.246;2023-04-06T01:21:43;19.70;;;8.70;;
22660;SDS011;11497;52.222;21.246;2023-04-06T01:24:14;18.67;;;8.90;;
22660;SDS011;11497;52.222;21.246;2023-04-06T01:27:02;18.15;;;8.82;;
22660;SDS011;11497;52.222;21.246;2023-04-06T01:29:56;12.95;;;6.47;;
22660;SDS011;11497;52.222;21.246;2023-04-06T01:32:43;19.60;;;8.15;;
22660;SDS011;11497;52.222;21.246;2023-04-06T01:35:15;17.27;;;8.95;;
22660;SDS011;11497;52.222;21.246;2023-04-06T01:37:55;18.42;;;9.15;;
22660;SDS011;11497;52.222;21.246;2023-04-06T01:40:28;18.05;;;9.48;;
22660;SDS011;11497;52.222;21.246;2023-04-06T01:42:56;18.25;;;8.85;;
22660;SDS011;11497;52.222;21.246;2023-04-06T01:45:31;19.35;;;8.82;;
22660;SDS011;11497;52.222;21.246;2023-04-06T01:48:09;17.40;;;8.77;;
22660;SDS011;11497;52.222;21.246;2023-04-06T01:50:37;18.45;;;9.32;;
22660;SDS011;11497;52.222;21.246;2023-04-06T01:53:06;17.65;;;9.20;;
22660;SDS011;11497;52.222;21.246;2023-04-06T01:55:36;14.75;;;8.70;;
22660;SDS011;11497;52.222;21.246;2023-04-06T01:58:25;16.55;;;8.27;;
22660;SDS011;11497;52.222;21.246;2023-04-06T02:00:53;21.67;;;9.20;;
22660;SDS011;11497;52.222;21.246;2023-04-06T02:03:23;17.73;;;8.95;;
22660;SDS011;11497;52.222;21.246;2023-04-06T02:05:59;17.75;;;9.75;;
22660;SDS011;11497;52.222;21.246;2023-04-06T02:08:33;21.33;;;9.05;;
22660;SDS011;11497;52.222;21.246;2023-04-06T02:11:00;15.63;;;9.05;;
22660;SDS011;11497;52.222;21.246;2023-04-06T02:13:33;17.77;;;9.00;;
22660;SDS011;11497;52.222;21.246;2023-04-06T02:16:01;19.73;;;9.57;;
22660;SDS011;11497;52.222;21.246;2023-04-06T02:18:30;20.88;;;9.45;;
22660;SDS011;11497;52.222;21.246;2023-04-06T02:20:58;17.23;;;8.55;;
22660;SDS011;11497;52.222;21.246;2023-04-06T02:23:26;17.48;;;8.50;;
22660;SDS011;11497;52.222;21.246;2023-04-06T02:25:56;18.30;;;8.50;;
22660;SDS011;11497;52.222;21.246;2023-04-06T02:28:24;19.70;;;9.15;;
22660;SDS011;11497;52.222;21.246;2023-04-06T02:30:51;16.85;;;8.52;;
22660;SDS011;11497;52.222;21.246;2023-04-06T02:33:24;14.90;;;8.60;;
22660;SDS011;11497;52.222;21.246;2023-04-06T02:35:52;16.42;;;8.18;;
22660;SDS011;11497;52.222;21.246;2023-04-06T02:38:20;17.48;;;8.57;;
22660;SDS011;11497;52.222;21.246;2023-04-06T02:40:47;16.10;;;8.10;;
22660;SDS011;11497;52.222;21.246;2023-04-06T02:43:23;18.10;;;7.68;;
22660;SDS011;11497;52.222;21.246;2023-04-06T02:46:00;18.00;;;7.63;;
22660;SDS011;11497;52.222;21.246;2023-04-06T02:48:31;18.92;;;8.13;;
22660;SDS011;11497;52.222;21.246;2023-04-06T02:51:03;15.60;;;7.72;;
22660;SDS011;11497;52.222;21.246;2023-04-06T02:53:31;15.70;;;7.80;;
22660;SDS011;11497;52.222;21.246;2023-04-06T02:55:59;18.02;;;8.07;;
22660;SDS011;11497;52.222;21.246;2023-04-06T02:58:37;17.52;;;8.32;;
22660;SDS011;11497;52.222;21.246;2023-04-06T03:01:04;17.58;;;8.10;;
22660;SDS011;11497;52.222;21.246;2023-04-06T03:03:34;16.15;;;8.00;;
22660;SDS011;11497;52.222;21.246;2023-04-06T03:06:06;16.70;;;8.52;;
22660;SDS011;11497;52.222;21.246;2023-04-06T03:08:35;19.80;;;8.60;;
22660;SDS011;11497;52.222;21.246;2023-04-06T03:11:02;17.17;;;8.20;;
22660;SDS011;11497;52.222;21.246;2023-04-06T03:13:37;17.92;;;9.05;;
22660;SDS011;11497;52.222;21.246;2023-04-06T03:16:07;17.45;;;8.70;;
22660;SDS011;11497;52.222;21.246;2023-04-06T03:18:36;22.27;;;9.38;;
22660;SDS011;11497;52.222;21.246;2023-04-06T03:21:04;17.60;;;9.05;;
22660;SDS011;11497;52.222;21.246;2023-04-06T03:23:45;20.73;;;9.32;;
22660;SDS011;11497;52.222;21.246;2023-04-06T03:26:12;21.00;;;9.57;;
22660;SDS011;11497;52.222;21.246;2023-04-06T03:28:41;20.42;;;9.00;;
22660;SDS011;11497;52.222;21.246;2023-04-06T03:31:09;23.58;;;9.77;;
22660;SDS011;11497;52.222;21.246;2023-04-06T03:33:53;17.98;;;9.32;;
22660;SDS011;11497;52.222;21.246;2023-04-06T03:36:25;20.70;;;9.68;;
22660;SDS011;11497;52.222;21.246;2023-04-06T03:38:56;19.98;;;9.98;;
22660;SDS011;11497;52.222;21.246;2023-04-06T03:41:24;23.92;;;9.65;;
22660;SDS011;11497;52.222;21.246;2023-04-06T03:44:26;21.70;;;10.43;;
22660;SDS011;11497;52.222;21.246;2023-04-06T03:46:54;21.23;;;9.80;;
22660;SDS011;11497;52.222;21.246;2023-04-06T03:49:23;19.90;;;10.40;;
22660;SDS011;11497;52.222;21.246;2023-04-06T03:51:52;20.23;;;9.50;;
22660;SDS011;11497;52.222;21.246;2023-04-06T03:54:21;22.63;;;9.88;;
22660;SDS011;11497;52.222;21.246;2023-04-06T03:56:48;19.40;;;9.80;;
22660;SDS011;11497;52.222;21.246;2023-04-06T03:59:17;21.83;;;10.07;;
22660;SDS011;11497;52.222;21.246;2023-04-06T04:01:45;22.23;;;10.00;;
22660;SDS011;11497;52.222;21.246;2023-04-06T04:04:13;23.13;;;9.88;;
22660;SDS011;11497;52.222;21.246;2023-04-06T04:06:41;22.58;;;9.82;;
22660;SDS011;11497;52.222;21.246;2023-04-06T04:09:08;25.25;;;10.27;;
22660;SDS011;11497;52.222;21.246;2023-04-06T04:11:36;19.38;;;10.68;;
22660;SDS011;11497;52.222;21.246;2023-04-06T04:14:04;22.42;;;9.70;;
22660;SDS011;11497;52.222;21.246;2023-04-06T04:16:32;22.58;;;10.30;;
22660;SDS011;11497;52.222;21.246;2023-04-06T04:19:00;22.30;;;9.45;;
22660;SDS011;11497;52.222;21.246;2023-04-06T04:21:29;21.25;;;9.35;;
22660;SDS011;11497;52.222;21.246;2023-04-06T04:24:02;21.58;;;9.73;;
22660;SDS011;11497;52.222;21.246;2023-04-06T04:26:33;22.40;;;9.45;;
22660;SDS011;11497;52.222;21.246;2023-04-06T04:29:01;21.05;;;9.10;;
22660;SDS011;11497;52.222;21.246;2023-04-06T04:31:29;23.73;;;9.00;;
22660;SDS011;11497;52.222;21.246;2023-04-06T04:34:01;17.67;;;9.15;;
22660;SDS011;11497;52.222;21.246;2023-04-06T04:36:32;21.90;;;9.02;;
22660;SDS011;11497;52.222;21.246;2023-04-06T04:39:04;20.20;;;9.05;;
22660;SDS011;11497;52.222;21.246;2023-04-06T04:41:37;23.08;;;9.02;;
22660;SDS011;11497;52.222;21.246;2023-04-06T04:44:08;28.73;;;9.02;;
22660;SDS011;11497;52.222;21.246;2023-04-06T04:46:36;23.38;;;9.10;;
22660;SDS011;11497;52.222;21.246;2023-04-06T04:49:06;18.25;;;8.77;;
22660;SDS011;11497;52.222;21.246;2023-04-06T04:51:35;23.30;;;9.20;;
22660;SDS011;11497;52.222;21.246;2023-04-06T04:54:10;23.00;;;9.02;;
22660;SDS011;11497;52.222;21.246;2023-04-06T04:56:40;23.15;;;9.40;;
22660;SDS011;11497;52.222;21.246;2023-04-06T04:59:24;23.65;;;9.95;;
22660;SDS011;11497;52.222;21.246;2023-04-06T05:01:58;21.17;;;9.32;;
22660;SDS011;11497;52.222;21.246;2023-04-06T05:04:36;19.70;;;9.05;;
22660;SDS011;11497;52.222;21.246;2023-04-06T05:07:06;23.00;;;9.18;;
22660;SDS011;11497;52.222;21.246;2023-04-06T05:09:38;19.98;;;8.68;;
22660;SDS011;11497;52.222;21.246;2023-04-06T05:12:06;18.67;;;8.15;;
22660;SDS011;11497;52.222;21.246;2023-04-06T05:14:44;20.13;;;8.95;;
22660;SDS011;11497;52.222;21.246;2023-04-06T05:17:15;19.33;;;8.52;;
22660;SDS011;11497;52.222;21.246;2023-04-06T05:19:43;19.52;;;9.10;;
22660;SDS011;11497;52.222;21.246;2023-04-06T05:22:15;17.33;;;8.63;;
22660;SDS011;11497;52.222;21.246;2023-04-06T05:24:49;21.02;;;8.77;;
22660;SDS011;11497;52.222;21.246;2023-04-06T05:27:17;16.38;;;7.32;;
22660;SDS011;11497;52.222;21.246;2023-04-06T05:29:46;18.42;;;7.90;;
22660;SDS011;11497;52.222;21.246;2023-04-06T05:32:15;14.80;;;7.82;;
22660;SDS011;11497;52.222;21.246;2023-04-06T05:34:50;15.90;;;8.45;;
22660;SDS011;11497;52.222;21.246;2023-04-06T05:37:18;17.42;;;8.35;;
22660;SDS011;11497;52.222;21.246;2023-04-06T05:39:46;14.85;;;6.30;;
22660;SDS011;11497;52.222;21.246;2023-04-06T05:42:14;11.10;;;5.63;;
22660;SDS011;11497;52.222;21.246;2023-04-06T05:44:51;14.35;;;6.80;;
22660;SDS011;11497;52.222;21.246;2023-04-06T05:47:19;14.45;;;7.80;;
22660;SDS011;11497;52.222;21.246;2023-04-06T05:49:53;15.48;;;6.70;;
22660;SDS011;11497;52.222;21.246;2023-04-06T05:52:31;11.68;;;6.40;;
22660;SDS011;11497;52.222;21.246;2023-04-06T05:54:59;12.75;;;7.35;;
22660;SDS011;11497;52.222;21.246;2023-04-06T05:57:29;13.25;;;6.38;;
22660;SDS011;11497;52.222;21.246;2023-04-06T05:59:57;15.10;;;6.63;;
22660;SDS011;11497;52.222;21.246;2023-04-06T06:02:38;17.35;;;6.55;;
22660;SDS011;11497;52.222;21.246;2023-04-06T06:05:10;14.48;;;7.07;;
22660;SDS011;11497;52.222;21.246;2023-04-06T06:07:40;12.73;;;6.97;;
22660;SDS011;11497;52.222;21.246;2023-04-06T06:10:09;12.50;;;6.20;;
22660;SDS011;11497;52.222;21.246;2023-04-06T06:12:38;12.82;;;6.57;;
22660;SDS011;11497;52.222;21.246;2023-04-06T06:15:07;10.23;;;6.03;;
22660;SDS011;11497;52.222;21.246;2023-04-06T06:17:39;11.52;;;6.93;;
22660;SDS011;11497;52.222;21.246;2023-04-06T06:20:08;10.15;;;6.68;;
22660;SDS011;11497;52.222;21.246;2023-04-06T06:22:36;10.98;;;6.25;;
22660;SDS011;11497;52.222;21.246;2023-04-06T06:25:06;12.20;;;5.63;;
22660;SDS011;11497;52.222;21.246;2023-04-06T06:27:34;12.20;;;6.28;;
22660;SDS011;11497;52.222;21.246;2023-04-06T06:30:04;10.57;;;5.20;;
22660;SDS011;11497;52.222;21.246;2023-04-06T06:32:35;9.13;;;5.28;;
22660;SDS011;11497;52.222;21.246;2023-04-06T06:35:03;9.15;;;4.78;;
22660;SDS011;11497;52.222;21.246;2023-04-06T06:37:32;6.45;;;4.80;;
22660;SDS011;11497;52.222;21.246;2023-04-06T06:40:01;10.93;;;5.50;;
22660;SDS011;11497;52.222;21.246;2023-04-06T06:42:31;11.75;;;4.57;;
22660;SDS011;11497;52.222;21.246;2023-04-06T06:45:09;10.50;;;5.25;;
22660;SDS011;11497;52.222;21.246;2023-04-06T06:47:39;7.78;;;4.47;;
22660;SDS011;11497;52.222;21.246;2023-04-06T06:50:10;9.00;;;4.78;;
22660;SDS011;11497;52.222;21.246;2023-04-06T06:52:39;4.97;;;4.18;;
22660;SDS011;11497;52.222;21.246;2023-04-06T06:55:08;10.38;;;4.88;;
22660;SDS011;11497;52.222;21.246;2023-04-06T06:57:37;8.93;;;3.78;;
22660;SDS011;11497;52.222;21.246;2023-04-06T07:00:07;9.25;;;4.13;;
22660;SDS011;11497;52.222;21.246;2023-04-06T07:02:40;7.03;;;4.25;;
22660;SDS011;11497;52.222;21.246;2023-04-06T07:05:08;6.13;;;3.45;;
22660;SDS011;11497;52.222;21.246;2023-04-06T07:07:54;8.52;;;3.95;;
22660;SDS011;11497;52.222;21.246;2023-04-06T07:10:23;8.85;;;4.28;;
22660;SDS011;11497;52.222;21.246;2023-04-06T07:12:50;9.27;;;4.47;;
22660;SDS011;11497;52.222;21.246;2023-04-06T07:15:18;6.45;;;3.97;;
22660;SDS011;11497;52.222;21.246;2023-04-06T07:17:46;9.05;;;5.35;;
22660;SDS011;11497;52.222;21.246;2023-04-06T07:20:14;8.38;;;4.18;;
22660;SDS011;11497;52.222;21.246;2023-04-06T07:22:43;9.18;;;4.60;;
22660;SDS011;11497;52.222;21.246;2023-04-06T07:25:15;8.63;;;4.35;;
22660;SDS011;11497;52.222;21.246;2023-04-06T07:27:42;11.27;;;4.57;;
22660;SDS011;11497;52.222;21.246;2023-04-06T07:30:11;5.65;;;4.20;;
22660;SDS011;11497;52.222;21.246;2023-04-06T07:32:39;7.53;;;4.60;;
22660;SDS011;11497;52.222;21.246;2023-04-06T07:35:08;10.07;;;4.88;;
22660;SDS011;11497;52.222;21.246;2023-04-06T07:37:36;6.53;;;4.55;;
22660;SDS011;11497;52.222;21.246;2023-04-06T07:40:04;9.57;;;4.15;;
22660;SDS011;11497;52.222;21.246;2023-04-06T07:42:33;7.57;;;4.35;;
22660;SDS011;11497;52.222;21.246;2023-04-06T07:45:04;7.63;;;4.07;;
22660;SDS011;11497;52.222;21.246;2023-04-06T07:47:33;8.52;;;3.97;;
22660;SDS011;11497;52.222;21.246;2023-04-06T07:50:01;5.88;;;4.13;;
22660;SDS011;11497;52.222;21.246;2023-04-06T07:52:30;6.22;;;3.95;;
22660;SDS011;11497;52.222;21.246;2023-04-06T07:54:59;5.75;;;4.35;;
22660;SDS011;11497;52.222;21.246;2023-04-06T07:57:27;9.73;;;4.72;;
22660;SDS011;11497;52.222;21.246;2023-04-06T07:59:55;9.57;;;5.03;;
22660;SDS011;11497;52.222;21.246;2023-04-06T08:02:23;9.98;;;4.80;;
22660;SDS011;11497;52.222;21.246;2023-04-06T08:04:51;7.78;;;4.55;;
22660;SDS011;11497;52.222;21.246;2023-04-06T08:07:20;10.38;;;4.97;;
22660;SDS011;11497;52.222;21.246;2023-04-06T08:09:48;9.10;;;4.88;;
22660;SDS011;11497;52.222;21.246;2023-04-06T08:12:16;8.30;;;4.32;;
22660;SDS011;11497;52.222;21.246;2023-04-06T08:14:44;6.50;;;4.32;;
22660;SDS011;11497;52.222;21.246;2023-04-06T08:17:12;7.50;;;4.05;;
22660;SDS011;11497;52.222;21.246;2023-04-06T08:19:42;11.40;;;4.03;;
22660;SDS011;11497;52.222;21.246;2023-04-06T08:22:11;11.52;;;3.60;;
22660;SDS011;11497;52.222;21.246;2023-04-06T08:24:39;8.02;;;4.03;;
22660;SDS011;11497;52.222;21.246;2023-04-06T08:27:07;9.73;;;4.20;;
22660;SDS011;11497;52.222;21.246;2023-04-06T08:29:36;8.40;;;4.35;;
22660;SDS011;11497;52.222;21.246;2023-04-06T08:32:04;6.97;;;4.60;;
22660;SDS011;11497;52.222;21.246;2023-04-06T08:34:33;6.97;;;4.20;;
22660;SDS011;11497;52.222;21.246;2023-04-06T08:37:01;7.88;;;4.05;;
22660;SDS011;11497;52.222;21.246;2023-04-06T08:39:29;7.63;;;4.78;;
22660;SDS011;11497;52.222;21.246;2023-04-06T08:41:57;6.70;;;4.43;;
22660;SDS011;11497;52.222;21.246;2023-04-06T08:44:27;5.95;;;3.97;;
22660;SDS011;11497;52.222;21.246;2023-04-06T08:46:55;8.00;;;4.50;;
22660;SDS011;11497;52.222;21.246;2023-04-06T08:49:24;11.15;;;5.15;;
22660;SDS011;11497;52.222;21.246;2023-04-06T08:51:52;8.60;;;4.30;;
22660;SDS011;11497;52.222;21.246;2023-04-06T08:54:21;10.93;;;4.88;;
22660;SDS011;11497;52.222;21.246;2023-04-06T08:56:48;8.70;;;4.40;;
22660;SDS011;11497;52.222;21.246;2023-04-06T08:59:17;8.63;;;5.05;;
22660;SDS011;11497;52.222;21.246;2023-04-06T09:01:45;9.63;;;4.78;;
22660;SDS011;11497;52.222;21.246;2023-04-06T09:04:14;7.03;;;4.50;;
22660;SDS011;11497;52.222;21.246;2023-04-06T09:06:43;8.63;;;4.70;;
22660;SDS011;11497;52.222;21.246;2023-04-06T09:09:11;7.20;;;5.10;;
22660;SDS011;11497;52.222;21.246;2023-04-06T09:11:46;7.05;;;4.38;;
22660;SDS011;11497;52.222;21.246;2023-04-06T09:14:15;7.13;;;4.03;;
22660;SDS011;11497;52.222;21.246;2023-04-06T09:16:44;7.80;;;4.68;;
22660;SDS011;11497;52.222;21.246;2023-04-06T09:19:12;8.50;;;4.32;;
22660;SDS011;11497;52.222;21.246;2023-04-06T09:21:40;5.70;;;4.00;;
22660;SDS011;11497;52.222;21.246;2023-04-06T09:24:08;7.95;;;4.65;;
22660;SDS011;11497;52.222;21.246;2023-04-06T09:26:46;5.95;;;4.20;;
22660;SDS011;11497;52.222;21.246;2023-04-06T09:29:24;9.05;;;4.38;;
22660;SDS011;11497;52.222;21.246;2023-04-06T09:32:15;9.90;;;5.25;;
22660;SDS011;11497;52.222;21.246;2023-04-06T09:34:43;6.95;;;4.70;;
22660;SDS011;11497;52.222;21.246;2023-04-06T09:37:17;8.40;;;4.63;;
22660;SDS011;11497;52.222;21.246;2023-04-06T09:39:46;8.05;;;5.00;;
22660;SDS011;11497;52.222;21.246;2023-04-06T09:42:24;7.68;;;4.95;;
22660;SDS011;11497;52.222;21.246;2023-04-06T09:44:52;6.47;;;4.25;;
22660;SDS011;11497;52.222;21.246;2023-04-06T09:47:21;8.45;;;5.60;;
22660;SDS011;11497;52.222;21.246;2023-04-06T09:52:26;11.65;;;5.45;;
22660;SDS011;11497;52.222;21.246;2023-04-06T09:55:02;9.32;;;5.13;;
22660;SDS011;11497;52.222;21.246;2023-04-06T10:00:13;11.30;;;5.45;;
22660;SDS011;11497;52.222;21.246;2023-04-06T10:05:37;11.77;;;5.78;;
22660;SDS011;11497;52.222;21.246;2023-04-06T10:08:21;11.25;;;5.72;;
22660;SDS011;11497;52.222;21.246;2023-04-06T10:10:58;10.07;;;5.82;;
22660;SDS011;11497;52.222;21.246;2023-04-06T10:13:27;7.75;;;5.75;;
22660;SDS011;11497;52.222;21.246;2023-04-06T10:15:57;11.15;;;5.70;;
22660;SDS011;11497;52.222;21.246;2023-04-06T10:18:27;8.55;;;5.75;;
22660;SDS011;11497;52.222;21.246;2023-04-06T10:20:57;8.63;;;5.78;;
22660;SDS011;11497;52.222;21.246;2023-04-06T10:23:43;9.10;;;5.05;;
22660;SDS011;11497;52.222;21.246;2023-04-06T10:26:15;10.13;;;5.28;;
22660;SDS011;11497;52.222;21.246;2023-04-06T10:28:47;9.30;;;4.82;;
22660;SDS011;11497;52.222;21.246;2023-04-06T10:31:25;12.88;;;5.72;;
22660;SDS011;11497;52.222;21.246;2023-04-06T10:33:58;8.00;;;5.07;;
22660;SDS011;11497;52.222;21.246;2023-04-06T10:36:32;9.07;;;5.03;;
22660;SDS011;11497;52.222;21.246;2023-04-06T10:39:04;10.00;;;5.43;;
22660;SDS011;11497;52.222;21.246;2023-04-06T10:41:34;10.35;;;5.05;;
22660;SDS011;11497;52.222;21.246;2023-04-06T10:44:03;10.50;;;4.90;;
22660;SDS011;11497;52.222;21.246;2023-04-06T10:46:32;8.95;;;5.18;;
22660;SDS011;11497;52.222;21.246;2023-04-06T10:49:10;13.02;;;5.35;;
22660;SDS011;11497;52.222;21.246;2023-04-06T10:51:39;11.13;;;6.10;;
22660;SDS011;11497;52.222;21.246;2023-04-06T10:54:08;8.02;;;5.60;;
22660;SDS011;11497;52.222;21.246;2023-04-06T10:56:38;8.98;;;6.13;;
22660;SDS011;11497;52.222;21.246;2023-04-06T10:59:06;10.60;;;5.72;;
22660;SDS011;11497;52.222;21.246;2023-04-06T11:01:34;8.57;;;5.60;;
22660;SDS011;11497;52.222;21.246;2023-04-06T11:04:02;10.05;;;5.85;;
22660;SDS011;11497;52.222;21.246;2023-04-06T11:06:30;11.02;;;5.95;;
22660;SDS011;11497;52.222;21.246;2023-04-06T11:08:58;8.63;;;6.03;;
22660;SDS011;11497;52.222;21.246;2023-04-06T11:11:27;10.90;;;6.35;;
22660;SDS011;11497;52.222;21.246;2023-04-06T11:13:56;11.30;;;5.85;;
22660;SDS011;11497;52.222;21.246;2023-04-06T11:16:27;11.60;;;6.20;;
22660;SDS011;11497;52.222;21.246;2023-04-06T11:18:58;9.85;;;5.90;;
22660;SDS011;11497;52.222;21.246;2023-04-06T11:24:16;12.45;;;5.97;;
22660;SDS011;11497;52.222;21.246;2023-04-06T11:26:49;12.88;;;5.53;;
22660;SDS011;11497;52.222;21.246;2023-04-06T11:29:21;9.32;;;5.95;;
22660;SDS011;11497;52.222;21.246;2023-04-06T11:31:51;12.90;;;6.90;;
22660;SDS011;11497;52.222;21.246;2023-04-06T11:34:30;7.53;;;5.65;;
22660;SDS011;11497;52.222;21.246;2023-04-06T11:37:07;10.25;;;6.30;;
22660;SDS011;11497;52.222;21.246;2023-04-06T11:39:37;10.60;;;6.47;;
22660;SDS011;11497;52.222;21.246;2023-04-06T11:42:06;9.20;;;6.15;;
22660;SDS011;11497;52.222;21.246;2023-04-06T11:44:54;10.27;;;6.03;;
22660;SDS011;11497;52.222;21.246;2023-04-06T11:47:29;12.60;;;6.18;;
22660;SDS011;11497;52.222;21.246;2023-04-06T11:50:12;12.07;;;5.72;;
22660;SDS011;11497;52.222;21.246;2023-04-06T11:52:41;10.30;;;6.10;;
22660;SDS011;11497;52.222;21.246;2023-04-06T11:55:10;8.15;;;5.90;;
22660;SDS011;11497;52.222;21.246;2023-04-06T11:57:41;8.07;;;5.57;;
22660;SDS011;11497;52.222;21.246;2023-04-06T12:00:09;9.73;;;5.68;;
22660;SDS011;11497;52.222;21.246;2023-04-06T12:02:39;7.70;;;5.35;;
22660;SDS011;11497;52.222;21.246;2023-04-06T12:05:12;12.15;;;5.90;;
22660;SDS011;11497;52.222;21.246;2023-04-06T12:07:40;9.27;;;5.35;;
22660;SDS011;11497;52.222;21.246;2023-04-06T12:10:09;7.63;;;4.72;;
22660;SDS011;11497;52.222;21.246;2023-04-06T12:12:37;9.45;;;5.10;;
22660;SDS011;11497;52.222;21.246;2023-04-06T12:15:05;8.52;;;4.95;;
22660;SDS011;11497;52.222;21.246;2023-04-06T12:17:33;9.38;;;5.25;;
22660;SDS011;11497;52.222;21.246;2023-04-06T12:20:02;9.23;;;5.22;;
22660;SDS011;11497;52.222;21.246;2023-04-06T12:22:39;9.57;;;5.18;;
22660;SDS011;11497;52.222;21.246;2023-04-06T12:25:07;11.10;;;5.50;;
22660;SDS011;11497;52.222;21.246;2023-04-06T12:27:36;9.57;;;5.30;;
22660;SDS011;11497;52.222;21.246;2023-04-06T12:30:04;7.15;;;4.85;;
22660;SDS011;11497;52.222;21.246;2023-04-06T12:32:32;8.13;;;4.85;;
22660;SDS011;11497;52.222;21.246;2023-04-06T12:35:00;8.90;;;5.10;;
22660;SDS011;11497;52.222;21.246;2023-04-06T12:37:28;11.38;;;6.00;;
22660;SDS011;11497;52.222;21.246;2023-04-06T12:39:56;7.43;;;5.00;;
22660;SDS011;11497;52.222;21.246;2023-04-06T12:42:24;8.38;;;4.70;;
22660;SDS011;11497;52.222;21.246;2023-04-06T12:44:53;10.18;;;5.40;;
22660;SDS011;11497;52.222;21.246;2023-04-06T12:47:21;8.05;;;4.80;;
22660;SDS011;11497;52.222;21.246;2023-04-06T12:49:49;7.88;;;4.72;;
22660;SDS011;11497;52.222;21.246;2023-04-06T12:52:17;8.57;;;5.30;;
22660;SDS011;11497;52.222;21.246;2023-04-06T12:54:45;8.50;;;5.30;;
22660;SDS011;11497;52.222;21.246;2023-04-06T12:57:15;9.65;;;5.60;;
22660;SDS011;11497;52.222;21.246;2023-04-06T12:59:43;10.70;;;5.63;;
22660;SDS011;11497;52.222;21.246;2023-04-06T13:02:12;9.02;;;5.50;;
22660;SDS011;11497;52.222;21.246;2023-04-06T13:04:40;10.77;;;5.10;;
22660;SDS011;11497;52.222;21.246;2023-04-06T13:07:08;8.95;;;5.13;;
22660;SDS011;11497;52.222;21.246;2023-04-06T13:09:36;10.02;;;5.57;;
22660;SDS011;11497;52.222;21.246;2023-04-06T13:12:04;9.65;;;5.60;;
22660;SDS011;11497;52.222;21.246;2023-04-06T13:14:32;8.20;;;4.40;;
22660;SDS011;11497;52.222;21.246;2023-04-06T13:17:00;12.25;;;5.32;;
22660;SDS011;11497;52.222;21.246;2023-04-06T13:19:28;9.75;;;6.00;;
22660;SDS011;11497;52.222;21.246;2023-04-06T13:21:58;9.10;;;5.07;;
22660;SDS011;11497;52.222;21.246;2023-04-06T13:24:25;8.85;;;5.93;;
22660;SDS011;11497;52.222;21.246;2023-04-06T13:26:53;10.23;;;5.85;;
22660;SDS011;11497;52.222;21.246;2023-04-06T13:29:21;8.43;;;5.65;;
22660;SDS011;11497;52.222;21.246;2023-04-06T13:31:49;10.20;;;5.70;;
22660;SDS011;11497;52.222;21.246;2023-04-06T13:34:19;9.10;;;5.40;;
22660;SDS011;11497;52.222;21.246;2023-04-06T13:36:47;6.63;;;4.57;;
22660;SDS011;11497;52.222;21.246;2023-04-06T13:39:15;11.10;;;6.03;;
22660;SDS011;11497;52.222;21.246;2023-04-06T13:41:43;10.00;;;5.85;;
22660;SDS011;11497;52.222;21.246;2023-04-06T13:44:11;9.45;;;5.90;;
22660;SDS011;11497;52.222;21.246;2023-04-06T13:46:39;9.48;;;5.88;;
22660;SDS011;11497;52.222;21.246;2023-04-06T13:49:07;10.40;;;5.75;;
22660;SDS011;11497;52.222;21.246;2023-04-06T13:51:35;13.32;;;6.25;;
22660;SDS011;11497;52.222;21.246;2023-04-06T13:54:03;11.18;;;6.40;;
22660;SDS011;11497;52.222;21.246;2023-04-06T13:56:31;13.23;;;6.32;;
22660;SDS011;11497;52.222;21.246;2023-04-06T13:58:59;10.93;;;6.57;;
22660;SDS011;11497;52.222;21.246;2023-04-06T14:01:27;9.48;;;6.35;;
22660;SDS011;11497;52.222;21.246;2023-04-06T14:03:55;15.85;;;7.10;;
22660;SDS011;11497;52.222;21.246;2023-04-06T14:06:23;12.60;;;6.53;;
22660;SDS011;11497;52.222;21.246;2023-04-06T14:08:57;11.75;;;6.50;;
22660;SDS011;11497;52.222;21.246;2023-04-06T14:11:26;11.40;;;6.82;;
22660;SDS011;11497;52.222;21.246;2023-04-06T14:13:54;12.00;;;6.68;;
22660;SDS011;11497;52.222;21.246;2023-04-06T14:16:24;11.93;;;6.03;;
22660;SDS011;11497;52.222;21.246;2023-04-06T14:18:53;14.77;;;7.50;;
22660;SDS011;11497;52.222;21.246;2023-04-06T14:21:24;13.20;;;6.57;;
22660;SDS011;11497;52.222;21.246;2023-04-06T14:23:53;11.98;;;6.82;;
22660;SDS011;11497;52.222;21.246;2023-04-06T14:26:25;12.40;;;6.05;;
22660;SDS011;11497;52.222;21.246;2023-04-06T14:28:53;9.27;;;5.85;;
22660;SDS011;11497;52.222;21.246;2023-04-06T14:31:21;11.30;;;5.75;;
22660;SDS011;11497;52.222;21.246;2023-04-06T14:33:49;10.23;;;6.07;;
22660;SDS011;11497;52.222;21.246;2023-04-06T14:36:18;10.15;;;6.03;;
22660;SDS011;11497;52.222;21.246;2023-04-06T14:38:46;13.48;;;6.03;;
22660;SDS011;11497;52.222;21.246;2023-04-06T14:41:15;14.40;;;6.78;;
22660;SDS011;11497;52.222;21.246;2023-04-06T14:43:45;11.23;;;6.15;;
22660;SDS011;11497;52.222;21.246;2023-04-06T14:46:14;10.98;;;6.88;;
22660;SDS011;11497;52.222;21.246;2023-04-06T14:48:42;11.13;;;6.45;;
22660;SDS011;11497;52.222;21.246;2023-04-06T14:51:11;11.40;;;6.95;;
22660;SDS011;11497;52.222;21.246;2023-04-06T14:53:40;12.52;;;7.03;;
22660;SDS011;11497;52.222;21.246;2023-04-06T14:56:08;11.68;;;7.18;;